Time;durP1;ratioP1;P1;durP2;ratioP2;P2;SDS_P1;SDS_P2;PMS_P1;PMS_P2;Temp;Humidity;BMP_temperature;BMP_pressure;BME280_temperature;BME280_humidity;BME280_pressure;Samples;Min_cycle;Max_cycle;Signal;HPM_P1;HPM_P2
2022/11/26 00:02:19;;;;;;;14.80;5.10;;;;;;;;;;5040981;28;20128;-78
2022/11/26 00:04:45;;;;;;;13.05;5.70;;;;;;;;;;5035908;28;20488;-78
2022/11/26 00:07:12;;;;;;;16.63;5.78;;;;;;;;;;5049811;28;20049;-78
2022/11/26 00:09:39;;;;;;;11.48;5.13;;;;;;;;;;5056635;28;20041;-78
2022/11/26 00:12:17;;;;;;;12.93;5.65;;;;;;;;;;5042451;28;20049;-78
2022/11/26 00:14:43;;;;;;;17.15;5.50;;;;;;;;;;5055771;28;20061;-78
2022/11/26 00:17:12;;;;;;;19.48;5.53;;;;;;;;;;5055981;28;20135;-78
2022/11/26 00:19:39;;;;;;;12.63;5.50;;;;;;;;;;5055753;28;20068;-78
2022/11/26 00:22:06;;;;;;;16.70;6.15;;;;;;;;;;5052827;28;20037;-78
2022/11/26 00:24:32;;;;;;;16.35;5.57;;;;;;;;;;5056807;28;20124;-78
2022/11/26 00:26:59;;;;;;;17.73;5.68;;;;;;;;;;5050820;28;20085;-78
2022/11/26 00:29:25;;;;;;;13.07;5.82;;;;;;;;;;5041248;28;20103;-78
2022/11/26 00:31:51;;;;;;;17.88;6.07;;;;;;;;;;5037307;28;20045;-78
2022/11/26 00:34:17;;;;;;;17.15;5.90;;;;;;;;;;5035489;28;20565;-78
2022/11/26 00:36:43;;;;;;;14.95;5.93;;;;;;;;;;5046468;28;20103;-78
2022/11/26 00:39:13;;;;;;;14.10;5.38;;;;;;;;;;5036197;28;20068;-78
2022/11/26 00:41:39;;;;;;;20.95;5.70;;;;;;;;;;5035944;28;20053;-78
2022/11/26 00:44:25;;;;;;;20.98;5.80;;;;;;;;;;5054387;28;20096;-78
2022/11/26 00:46:51;;;;;;;14.50;6.10;;;;;;;;;;5055103;28;20044;-78
2022/11/26 00:49:18;;;;;;;10.93;5.22;;;;;;;;;;5053208;28;20090;-78
2022/11/26 00:51:45;;;;;;;14.05;5.20;;;;;;;;;;5055193;28;20145;-78
2022/11/26 00:54:13;;;;;;;15.52;5.57;;;;;;;;;;5055276;28;20045;-78
2022/11/26 00:56:39;;;;;;;15.23;5.45;;;;;;;;;;5055225;28;20068;-78
2022/11/26 00:59:05;;;;;;;19.80;5.45;;;;;;;;;;5053918;28;20049;-78
2022/11/26 01:01:31;;;;;;;18.58;5.70;;;;;;;;;;5054169;28;20037;-78
2022/11/26 01:03:58;;;;;;;17.17;6.10;;;;;;;;;;5050503;28;20399;-78
2022/11/26 01:06:35;;;;;;;17.75;6.07;;;;;;;;;;5050495;28;20495;-78
2022/11/26 01:09:01;;;;;;;18.65;5.80;;;;;;;;;;5036992;28;20045;-78
2022/11/26 01:11:27;;;;;;;16.13;5.30;;;;;;;;;;5046518;28;20557;-78
2022/11/26 01:13:54;;;;;;;21.17;5.90;;;;;;;;;;5054099;28;20041;-78
2022/11/26 01:16:22;;;;;;;13.57;5.10;;;;;;;;;;5053311;28;20095;-78
2022/11/26 01:18:49;;;;;;;15.77;5.85;;;;;;;;;;5053586;28;20051;-78
2022/11/26 01:21:15;;;;;;;17.20;5.72;;;;;;;;;;5054961;28;20041;-78
2022/11/26 01:23:41;;;;;;;17.38;5.55;;;;;;;;;;5053613;28;20475;-78
2022/11/26 01:26:14;;;;;;;14.45;5.40;;;;;;;;;;5034924;28;20052;-78
2022/11/26 01:28:40;;;;;;;16.95;5.68;;;;;;;;;;5034620;28;20128;-78
2022/11/26 01:31:08;;;;;;;13.95;5.43;;;;;;;;;;5034437;28;20131;-78
2022/11/26 01:33:34;;;;;;;19.05;5.55;;;;;;;;;;5034799;28;20046;-78
2022/11/26 01:36:00;;;;;;;13.55;5.53;;;;;;;;;;5051858;28;20124;-78
2022/11/26 01:38:26;;;;;;;17.75;5.72;;;;;;;;;;5053077;28;20394;-78
2022/11/26 01:41:02;;;;;;;17.40;5.90;;;;;;;;;;5054000;28;20041;-78
2022/11/26 01:43:41;;;;;;;18.33;5.18;;;;;;;;;;5040191;28;20073;-81
2022/11/26 01:46:15;;;;;;;17.90;6.25;;;;;;;;;;5034691;28;20052;-78
2022/11/26 01:48:41;;;;;;;14.00;5.38;;;;;;;;;;5034098;28;20048;-78
2022/11/26 01:51:08;;;;;;;16.58;5.60;;;;;;;;;;5037445;28;20483;-78
2022/11/26 01:53:45;;;;;;;17.30;6.15;;;;;;;;;;5053717;28;20103;-78
2022/11/26 01:56:11;;;;;;;18.52;5.80;;;;;;;;;;5053943;28;20505;-78
2022/11/26 01:58:40;;;;;;;15.30;5.63;;;;;;;;;;5039459;28;20503;-78
2022/11/26 02:01:06;;;;;;;20.17;5.82;;;;;;;;;;5033704;28;20502;-78
2022/11/26 02:03:34;;;;;;;14.98;5.07;;;;;;;;;;5033980;28;20049;-78
2022/11/26 02:06:03;;;;;;;14.05;5.38;;;;;;;;;;5038204;28;20102;-78
2022/11/26 02:08:30;;;;;;;15.82;5.20;;;;;;;;;;5044462;28;20041;-78
2022/11/26 02:10:56;;;;;;;14.60;4.97;;;;;;;;;;5034713;28;20041;-78
2022/11/26 02:13:23;;;;;;;15.20;5.75;;;;;;;;;;5053737;28;20041;-78
2022/11/26 02:15:54;;;;;;;16.30;5.40;;;;;;;;;;5053409;28;20080;-78
2022/11/26 02:18:21;;;;;;;15.63;4.90;;;;;;;;;;5053916;28;20048;-78
2022/11/26 02:20:47;;;;;;;17.55;5.80;;;;;;;;;;5052530;28;20041;-78
2022/11/26 02:23:31;;;;;;;17.67;5.18;;;;;;;;;;5052081;28;20040;-78
2022/11/26 02:25:57;;;;;;;19.85;5.43;;;;;;;;;;5052434;28;20049;-78
2022/11/26 02:28:31;;;;;;;21.13;6.85;;;;;;;;;;5020463;28;20045;-78
2022/11/26 02:31:15;;;;;;;16.60;4.85;;;;;;;;;;5033986;28;20084;-78
2022/11/26 02:33:50;;;;;;;15.63;5.50;;;;;;;;;;5033565;28;20045;-78
2022/11/26 02:36:22;;;;;;;17.45;5.15;;;;;;;;;;5033974;28;20133;-78
2022/11/26 02:38:48;;;;;;;13.75;5.07;;;;;;;;;;5045553;28;20440;-78
2022/11/26 02:41:14;;;;;;;21.65;6.22;;;;;;;;;;5051956;28;20116;-78
2022/11/26 02:43:40;;;;;;;21.88;5.15;;;;;;;;;;5053429;28;20050;-78
2022/11/26 02:46:11;;;;;;;18.85;5.90;;;;;;;;;;5053346;28;20041;-78
2022/11/26 02:48:41;;;;;;;18.40;5.40;;;;;;;;;;5053755;28;20056;-78
2022/11/26 02:51:10;;;;;;;14.95;5.38;;;;;;;;;;5049504;28;20046;-78
2022/11/26 02:53:37;;;;;;;18.63;4.82;;;;;;;;;;5053179;28;20041;-78
2022/11/26 02:56:06;;;;;;;17.40;5.65;;;;;;;;;;5035788;28;20060;-78
2022/11/26 02:58:32;;;;;;;16.95;5.45;;;;;;;;;;5053435;28;20076;-78
2022/11/26 03:00:59;;;;;;;13.75;5.63;;;;;;;;;;5053611;28;20094;-78
2022/11/26 03:03:34;;;;;;;15.93;5.80;;;;;;;;;;5053339;28;20095;-78
2022/11/26 03:06:06;;;;;;;22.38;5.45;;;;;;;;;;5052632;28;20049;-79
2022/11/26 03:08:32;;;;;;;18.48;5.93;;;;;;;;;;5053032;28;20186;-78
2022/11/26 03:10:59;;;;;;;16.13;5.28;;;;;;;;;;5052406;28;20048;-78
2022/11/26 03:13:25;;;;;;;19.42;5.57;;;;;;;;;;5055336;28;20439;-78
2022/11/26 03:15:51;;;;;;;19.67;5.80;;;;;;;;;;5056578;28;20085;-78
2022/11/26 03:18:17;;;;;;;15.48;6.50;;;;;;;;;;5039087;28;20094;-78
2022/11/26 03:20:43;;;;;;;15.85;5.95;;;;;;;;;;5057254;28;20063;-78
2022/11/26 03:23:09;;;;;;;14.80;5.90;;;;;;;;;;5038692;28;20054;-78
2022/11/26 03:25:35;;;;;;;22.27;5.78;;;;;;;;;;5037535;28;20088;-78
2022/11/26 03:28:02;;;;;;;17.40;6.07;;;;;;;;;;5037205;28;20463;-78
2022/11/26 03:30:28;;;;;;;20.35;6.53;;;;;;;;;;5037046;28;20052;-78
2022/11/26 03:32:55;;;;;;;15.10;6.18;;;;;;;;;;5045745;28;20076;-78
2022/11/26 03:35:21;;;;;;;18.55;6.57;;;;;;;;;;5056919;28;20040;-78
2022/11/26 03:37:47;;;;;;;20.85;6.78;;;;;;;;;;5057403;28;20037;-78
2022/11/26 03:40:15;;;;;;;19.10;6.43;;;;;;;;;;5057878;28;20048;-78
2022/11/26 03:42:41;;;;;;;21.33;6.22;;;;;;;;;;5056569;28;20068;-78
2022/11/26 03:45:07;;;;;;;19.98;6.68;;;;;;;;;;5042493;28;20045;-78
2022/11/26 03:47:33;;;;;;;20.92;6.75;;;;;;;;;;5049968;28;20048;-78
2022/11/26 03:49:59;;;;;;;20.20;6.15;;;;;;;;;;5056734;28;20384;-78
2022/11/26 03:52:26;;;;;;;23.13;6.90;;;;;;;;;;5053633;28;20049;-78
2022/11/26 03:54:52;;;;;;;18.58;6.72;;;;;;;;;;5056503;28;20083;-78
2022/11/26 03:57:19;;;;;;;20.55;6.80;;;;;;;;;;5056748;28;20076;-78
2022/11/26 03:59:45;;;;;;;16.95;6.45;;;;;;;;;;5056969;28;20049;-78
2022/11/26 04:02:11;;;;;;;20.23;7.50;;;;;;;;;;5034730;28;20052;-78
2022/11/26 04:04:37;;;;;;;18.23;6.80;;;;;;;;;;5036294;28;20125;-78
2022/11/26 04:07:03;;;;;;;20.60;7.53;;;;;;;;;;5035959;28;20092;-78
2022/11/26 04:09:29;;;;;;;18.60;6.85;;;;;;;;;;5049251;28;20048;-78
2022/11/26 04:11:55;;;;;;;23.42;7.18;;;;;;;;;;5056400;28;20044;-79
2022/11/26 04:14:21;;;;;;;22.88;7.40;;;;;;;;;;5056301;28;20045;-78
2022/11/26 04:16:47;;;;;;;17.23;6.57;;;;;;;;;;5054520;28;20102;-78
2022/11/26 04:19:13;;;;;;;20.75;7.40;;;;;;;;;;5056498;28;20045;-78
2022/11/26 04:21:39;;;;;;;22.83;7.45;;;;;;;;;;5054829;28;20045;-78
2022/11/26 04:24:05;;;;;;;20.67;6.53;;;;;;;;;;5054559;28;20044;-79
2022/11/26 04:26:31;;;;;;;18.67;6.90;;;;;;;;;;5056383;28;20091;-78
2022/11/26 04:28:58;;;;;;;19.65;6.43;;;;;;;;;;5037689;28;20051;-78
2022/11/26 04:31:24;;;;;;;23.58;6.68;;;;;;;;;;5054431;28;20130;-78
2022/11/26 04:33:50;;;;;;;18.38;6.80;;;;;;;;;;5049489;28;20049;-78
2022/11/26 04:36:16;;;;;;;18.25;6.72;;;;;;;;;;5036171;28;20037;-78
2022/11/26 04:38:42;;;;;;;18.05;6.63;;;;;;;;;;5048703;28;20076;-78
2022/11/26 04:41:08;;;;;;;18.73;7.50;;;;;;;;;;5055519;28;20044;-78
2022/11/26 04:43:34;;;;;;;21.30;7.32;;;;;;;;;;5054421;28;20128;-78
2022/11/26 04:46:00;;;;;;;21.02;6.60;;;;;;;;;;5055441;28;20106;-78
2022/11/26 04:48:26;;;;;;;17.77;7.05;;;;;;;;;;5044981;28;20384;-78
2022/11/26 04:50:52;;;;;;;22.13;7.80;;;;;;;;;;5036918;28;20069;-78
2022/11/26 04:53:20;;;;;;;17.92;7.05;;;;;;;;;;5055716;28;20468;-78
2022/11/26 04:55:48;;;;;;;19.33;7.30;;;;;;;;;;5055507;28;20060;-78
2022/11/26 04:58:14;;;;;;;24.73;7.60;;;;;;;;;;5055416;28;20121;-78
2022/11/26 05:00:40;;;;;;;20.75;6.88;;;;;;;;;;5053481;28;20045;-78
2022/11/26 05:03:06;;;;;;;24.30;7.68;;;;;;;;;;5053928;28;20131;-78
2022/11/26 05:05:32;;;;;;;19.10;7.32;;;;;;;;;;5054191;28;20041;-78
2022/11/26 05:07:58;;;;;;;20.70;7.72;;;;;;;;;;5054900;28;20045;-78
2022/11/26 05:10:24;;;;;;;20.15;7.70;;;;;;;;;;5052464;28;20049;-78
2022/11/26 05:12:50;;;;;;;23.10;7.95;;;;;;;;;;5034675;28;20379;-78
2022/11/26 05:15:16;;;;;;;25.17;7.40;;;;;;;;;;5034482;28;20057;-78
2022/11/26 05:17:42;;;;;;;23.58;8.77;;;;;;;;;;5034821;28;20092;-78
2022/11/26 05:20:08;;;;;;;20.52;6.97;;;;;;;;;;5044133;28;20041;-78
2022/11/26 05:22:35;;;;;;;16.42;6.80;;;;;;;;;;5054765;28;20083;-78
2022/11/26 05:25:01;;;;;;;22.90;7.60;;;;;;;;;;5053388;28;20120;-78
2022/11/26 05:27:27;;;;;;;20.27;7.85;;;;;;;;;;5054511;28;20080;-78
2022/11/26 05:29:53;;;;;;;24.20;7.68;;;;;;;;;;5054605;28;20045;-78
2022/11/26 05:32:19;;;;;;;21.58;8.10;;;;;;;;;;5037148;28;20519;-78
2022/11/26 05:34:45;;;;;;;24.50;7.95;;;;;;;;;;5037512;28;20048;-78
2022/11/26 05:37:11;;;;;;;23.30;8.35;;;;;;;;;;5054890;28;20041;-78
2022/11/26 05:39:39;;;;;;;19.02;7.82;;;;;;;;;;5054152;28;20052;-78
2022/11/26 05:42:05;;;;;;;22.50;7.45;;;;;;;;;;5054293;28;20406;-78
2022/11/26 05:44:32;;;;;;;24.63;8.90;;;;;;;;;;5054141;28;20063;-78
2022/11/26 05:46:58;;;;;;;22.80;8.32;;;;;;;;;;5054236;28;20044;-78
2022/11/26 05:49:24;;;;;;;15.80;7.30;;;;;;;;;;5033812;28;21340;-78
2022/11/26 05:51:50;;;;;;;20.00;8.27;;;;;;;;;;5034597;28;20534;-78
2022/11/26 05:54:16;;;;;;;20.30;8.27;;;;;;;;;;5035027;28;20111;-78
2022/11/26 05:56:42;;;;;;;21.58;8.10;;;;;;;;;;5053663;28;20450;-78
2022/11/26 05:59:08;;;;;;;27.17;8.32;;;;;;;;;;5053978;28;20116;-78
2022/11/26 06:01:34;;;;;;;18.35;8.40;;;;;;;;;;5054069;28;20041;-78
2022/11/26 06:04:00;;;;;;;22.15;8.38;;;;;;;;;;5054399;28;20056;-78
2022/11/26 06:06:27;;;;;;;19.65;7.78;;;;;;;;;;5054435;28;20047;-78
2022/11/26 06:08:56;;;;;;;20.63;8.18;;;;;;;;;;5052888;28;20371;-78
2022/11/26 06:11:22;;;;;;;23.27;8.43;;;;;;;;;;5046155;28;20045;-78
2022/11/26 06:13:48;;;;;;;31.73;9.38;;;;;;;;;;5036986;28;20119;-78
2022/11/26 06:16:14;;;;;;;24.95;8.43;;;;;;;;;;5053723;28;20103;-78
2022/11/26 06:18:40;;;;;;;22.90;8.75;;;;;;;;;;5054557;28;20137;-78
2022/11/26 06:21:07;;;;;;;26.70;8.90;;;;;;;;;;5056401;28;20077;-77
2022/11/26 06:23:33;;;;;;;20.27;8.50;;;;;;;;;;5054905;28;20049;-78
2022/11/26 06:25:59;;;;;;;21.85;8.95;;;;;;;;;;5053285;28;20041;-78
2022/11/26 06:28:26;;;;;;;23.60;8.98;;;;;;;;;;5052693;28;20068;-78
2022/11/26 06:30:52;;;;;;;22.83;8.13;;;;;;;;;;5052800;28;20045;-78
2022/11/26 06:33:18;;;;;;;28.77;10.05;;;;;;;;;;5053463;28;20186;-78
2022/11/26 06:35:44;;;;;;;22.17;8.07;;;;;;;;;;5052817;28;20106;-78
2022/11/26 06:38:10;;;;;;;23.10;9.70;;;;;;;;;;5053646;28;20491;-78
2022/11/26 06:40:36;;;;;;;22.73;9.35;;;;;;;;;;5051912;28;20041;-78
2022/11/26 06:43:02;;;;;;;20.60;8.93;;;;;;;;;;5035024;28;20038;-78
2022/11/26 06:45:29;;;;;;;22.70;8.93;;;;;;;;;;5039684;28;20514;-78
2022/11/26 06:47:55;;;;;;;21.00;9.40;;;;;;;;;;5047982;28;20466;-78
2022/11/26 06:50:22;;;;;;;23.58;9.05;;;;;;;;;;5053418;28;20041;-78
2022/11/26 06:52:51;;;;;;;28.20;9.30;;;;;;;;;;5053830;28;20056;-78
2022/11/26 06:55:18;;;;;;;21.90;9.23;;;;;;;;;;5056035;28;20052;-78
2022/11/26 06:57:44;;;;;;;25.15;9.13;;;;;;;;;;5057772;28;20084;-78
2022/11/26 07:00:11;;;;;;;22.55;9.73;;;;;;;;;;5057924;28;20041;-78
2022/11/26 07:02:37;;;;;;;24.15;9.07;;;;;;;;;;5053797;28;20371;-78
2022/11/26 07:05:03;;;;;;;21.67;8.95;;;;;;;;;;5053434;28;20131;-78
2022/11/26 07:07:29;;;;;;;28.02;9.82;;;;;;;;;;5043476;28;20041;-78
2022/11/26 07:09:55;;;;;;;25.48;10.00;;;;;;;;;;5051651;28;20037;-78
2022/11/26 07:12:21;;;;;;;27.83;9.45;;;;;;;;;;5053188;28;20045;-78
2022/11/26 07:14:47;;;;;;;21.48;9.25;;;;;;;;;;5052863;28;20064;-78
2022/11/26 07:17:14;;;;;;;24.40;9.30;;;;;;;;;;5051183;28;20061;-78
2022/11/26 07:19:40;;;;;;;26.40;10.45;;;;;;;;;;5053193;28;20056;-78
2022/11/26 07:22:06;;;;;;;22.67;9.35;;;;;;;;;;5037095;28;20041;-78
2022/11/26 07:24:35;;;;;;;24.42;9.57;;;;;;;;;;5043688;28;20045;-78
2022/11/26 07:27:01;;;;;;;26.45;10.43;;;;;;;;;;5032703;28;20527;-78
2022/11/26 07:29:27;;;;;;;21.52;9.15;;;;;;;;;;5032110;28;20045;-78
2022/11/26 07:31:53;;;;;;;24.23;10.20;;;;;;;;;;5033148;28;20415;-78
2022/11/26 07:34:22;;;;;;;22.02;9.63;;;;;;;;;;5033103;28;20045;-78
2022/11/26 07:36:48;;;;;;;24.75;9.93;;;;;;;;;;5032924;28;20104;-78
2022/11/26 07:39:14;;;;;;;23.48;9.93;;;;;;;;;;5050508;28;20040;-78
2022/11/26 07:41:40;;;;;;;26.88;10.80;;;;;;;;;;5042630;28;20120;-78
2022/11/26 07:44:06;;;;;;;29.88;10.25;;;;;;;;;;5032814;28;20129;-78
2022/11/26 07:46:32;;;;;;;23.90;9.98;;;;;;;;;;5050825;28;20479;-78
2022/11/26 07:48:58;;;;;;;24.48;10.18;;;;;;;;;;5053192;28;20052;-78
2022/11/26 07:51:25;;;;;;;24.05;9.95;;;;;;;;;;5048255;28;20041;-78
2022/11/26 07:53:51;;;;;;;24.30;10.75;;;;;;;;;;5031811;28;20107;-78
2022/11/26 07:56:17;;;;;;;25.40;10.35;;;;;;;;;;5035744;28;20060;-78
2022/11/26 07:58:44;;;;;;;30.95;11.40;;;;;;;;;;5055533;28;20041;-78
2022/11/26 08:01:11;;;;;;;28.40;10.35;;;;;;;;;;5056040;28;20045;-78
2022/11/26 08:03:41;;;;;;;29.40;11.02;;;;;;;;;;5054945;28;20098;-78
2022/11/26 08:06:08;;;;;;;22.42;10.90;;;;;;;;;;5056472;28;20045;-78
2022/11/26 08:08:35;;;;;;;28.08;11.63;;;;;;;;;;5056135;28;20075;-78
2022/11/26 08:11:01;;;;;;;24.27;10.63;;;;;;;;;;5053652;28;20095;-78
2022/11/26 08:13:27;;;;;;;25.88;11.32;;;;;;;;;;5054592;28;20434;-78
2022/11/26 08:15:53;;;;;;;26.52;10.93;;;;;;;;;;5055744;28;20501;-78
2022/11/26 08:18:19;;;;;;;26.13;10.52;;;;;;;;;;5056751;28;20041;-79
2022/11/26 08:20:53;;;;;;;22.15;10.32;;;;;;;;;;5037993;28;20076;-78
2022/11/26 08:23:19;;;;;;;25.15;11.20;;;;;;;;;;5054955;28;20045;-78
2022/11/26 08:25:45;;;;;;;29.35;11.15;;;;;;;;;;5054575;28;20047;-78
2022/11/26 08:28:11;;;;;;;22.92;9.85;;;;;;;;;;5055818;28;20086;-78
2022/11/26 08:30:37;;;;;;;28.25;10.77;;;;;;;;;;5054705;28;20057;-79
2022/11/26 08:33:03;;;;;;;23.98;10.45;;;;;;;;;;5055129;28;20468;-78
2022/11/26 08:35:29;;;;;;;25.85;11.02;;;;;;;;;;5054846;28;20127;-78
2022/11/26 08:37:55;;;;;;;20.83;10.48;;;;;;;;;;5054631;28;20045;-78
2022/11/26 08:40:21;;;;;;;26.83;10.25;;;;;;;;;;5054592;28;20091;-79
2022/11/26 08:42:47;;;;;;;26.75;10.20;;;;;;;;;;5054902;28;20090;-77
2022/11/26 08:45:13;;;;;;;23.88;9.98;;;;;;;;;;5041157;28;20048;-77
2022/11/26 08:47:39;;;;;;;25.17;9.75;;;;;;;;;;5036396;28;20045;-78
2022/11/26 08:50:06;;;;;;;22.00;9.43;;;;;;;;;;5035952;28;20049;-79
2022/11/26 08:52:32;;;;;;;25.10;10.30;;;;;;;;;;5048465;28;20052;-77
2022/11/26 08:54:58;;;;;;;24.30;10.18;;;;;;;;;;5054937;28;20041;-77
2022/11/26 08:57:24;;;;;;;23.95;10.05;;;;;;;;;;5054258;28;20094;-77
2022/11/26 08:59:50;;;;;;;27.35;10.50;;;;;;;;;;5052807;28;20494;-78
2022/11/26 09:02:16;;;;;;;27.67;10.65;;;;;;;;;;5051115;28;20041;-78
2022/11/26 09:04:43;;;;;;;26.02;9.65;;;;;;;;;;5048415;28;20040;-80
2022/11/26 09:07:09;;;;;;;25.83;9.80;;;;;;;;;;5042538;28;20033;-78
2022/11/26 09:09:35;;;;;;;26.65;10.70;;;;;;;;;;5039196;28;20041;-78
2022/11/26 09:12:01;;;;;;;21.48;9.32;;;;;;;;;;5035121;28;20048;-78
2022/11/26 09:14:29;;;;;;;26.33;9.90;;;;;;;;;;5035851;28;20096;-78
2022/11/26 09:16:56;;;;;;;24.60;10.32;;;;;;;;;;5041345;28;20156;-78
2022/11/26 09:19:22;;;;;;;24.52;9.48;;;;;;;;;;5055075;28;20049;-77
2022/11/26 09:21:48;;;;;;;21.67;10.32;;;;;;;;;;5036877;28;20094;-78
2022/11/26 09:24:16;;;;;;;23.73;9.85;;;;;;;;;;5046042;28;20484;-77
2022/11/26 09:26:42;;;;;;;24.50;9.45;;;;;;;;;;5035148;28;20041;-77
2022/11/26 09:29:11;;;;;;;25.05;10.27;;;;;;;;;;5034599;28;20091;-78
2022/11/26 09:31:37;;;;;;;23.42;10.35;;;;;;;;;;5033240;28;20403;-78
2022/11/26 09:34:03;;;;;;;23.60;10.38;;;;;;;;;;5038808;28;20041;-78
2022/11/26 09:36:29;;;;;;;25.60;10.15;;;;;;;;;;5054039;28;20044;-78
2022/11/26 09:38:56;;;;;;;21.60;9.80;;;;;;;;;;5052710;28;20104;-77
2022/11/26 09:41:42;;;;;;;23.60;10.35;;;;;;;;;;5050952;28;20046;-77
2022/11/26 09:44:14;;;;;;;20.15;9.57;;;;;;;;;;5037487;28;20479;-77
2022/11/26 09:46:59;;;;;;;25.15;10.57;;;;;;;;;;5053974;28;20128;-77
2022/11/26 09:49:28;;;;;;;23.13;9.82;;;;;;;;;;5048879;28;20045;-77
2022/11/26 09:51:56;;;;;;;27.38;10.05;;;;;;;;;;5054294;28;20048;-78
2022/11/26 09:54:24;;;;;;;20.48;9.55;;;;;;;;;;5047089;28;20120;-78
2022/11/26 09:57:13;;;;;;;23.65;10.07;;;;;;;;;;5034281;28;20048;-78
2022/11/26 09:59:40;;;;;;;19.60;9.40;;;;;;;;;;5034313;28;20105;-81
2022/11/26 10:02:10;;;;;;;27.13;10.77;;;;;;;;;;5042998;28;20053;-81
2022/11/26 10:04:36;;;;;;;25.85;10.35;;;;;;;;;;5046221;28;20113;-81
2022/11/26 10:07:02;;;;;;;20.13;10.30;;;;;;;;;;5058282;28;20467;-81
2022/11/26 10:09:28;;;;;;;19.90;10.57;;;;;;;;;;5059300;28;20041;-81
2022/11/26 10:12:07;;;;;;;19.83;10.68;;;;;;;;;;5062654;28;20071;-82
2022/11/26 10:14:50;;;;;;;23.88;10.95;;;;;;;;;;5051186;28;20041;-81
2022/11/26 10:17:23;;;;;;;22.70;11.55;;;;;;;;;;5039514;28;20055;-82
2022/11/26 10:19:49;;;;;;;26.65;11.68;;;;;;;;;;5035941;28;20038;-81
2022/11/26 10:22:22;;;;;;;21.90;11.10;;;;;;;;;;5043743;28;20045;-82
2022/11/26 10:24:49;;;;;;;26.40;11.50;;;;;;;;;;5057671;28;20063;-81
2022/11/26 10:27:19;;;;;;;21.38;11.35;;;;;;;;;;5040983;28;20045;-82
2022/11/26 10:29:47;;;;;;;24.60;11.30;;;;;;;;;;5038938;28;20050;-80
2022/11/26 10:32:13;;;;;;;24.33;12.23;;;;;;;;;;5038070;28;20475;-80
2022/11/26 10:34:50;;;;;;;24.48;11.27;;;;;;;;;;5039919;28;20045;-80
2022/11/26 10:37:16;;;;;;;20.30;11.00;;;;;;;;;;5047651;28;20087;-82
2022/11/26 10:39:42;;;;;;;30.48;12.10;;;;;;;;;;5061202;28;20037;-80
2022/11/26 10:42:19;;;;;;;22.63;10.63;;;;;;;;;;5059485;28;20076;-80
2022/11/26 10:44:44;;;;;;;;;;;;;;;;;;5053567;28;20045;-77
2022/11/26 10:47:20;;;;;;;27.65;11.57;;;;;;;;;;5033611;28;19979;-78
2022/11/26 10:49:46;;;;;;;29.23;11.97;;;;;;;;;;5043219;28;20042;-78
2022/11/26 10:52:15;;;;;;;22.50;12.00;;;;;;;;;;5053064;28;20037;-78
2022/11/26 10:54:41;;;;;;;25.48;12.75;;;;;;;;;;5052615;28;20518;-78
2022/11/26 10:57:09;;;;;;;28.08;12.02;;;;;;;;;;5052421;28;20487;-78
2022/11/26 10:59:50;;;;;;;27.30;11.73;;;;;;;;;;5053174;28;20037;-77
2022/11/26 11:02:19;;;;;;;23.27;11.30;;;;;;;;;;5051049;28;20045;-78
2022/11/26 11:04:46;;;;;;;24.52;11.57;;;;;;;;;;5054434;28;20040;-77
2022/11/26 11:07:31;;;;;;;23.63;11.60;;;;;;;;;;5054863;28;20041;-78
2022/11/26 11:10:02;;;;;;;25.98;10.88;;;;;;;;;;5054364;28;20057;-79
2022/11/26 11:12:28;;;;;;;30.67;12.90;;;;;;;;;;5032637;28;20053;-78
2022/11/26 11:14:54;;;;;;;27.33;11.65;;;;;;;;;;5056319;28;20045;-79
2022/11/26 11:17:38;;;;;;;30.88;13.05;;;;;;;;;;5055104;28;20084;-79
2022/11/26 11:20:21;;;;;;;26.63;11.52;;;;;;;;;;5054520;28;20045;-78
2022/11/26 11:22:55;;;;;;;27.15;11.43;;;;;;;;;;5054319;28;20460;-79
2022/11/26 11:25:23;;;;;;;25.25;11.98;;;;;;;;;;5054956;28;20053;-79
2022/11/26 11:27:49;;;;;;;31.08;11.40;;;;;;;;;;5063641;28;20514;-79
2022/11/26 11:30:29;;;;;;;23.08;10.88;;;;;;;;;;5063765;28;20180;-79
2022/11/26 11:32:56;;;;;;;27.95;11.07;;;;;;;;;;5045952;28;20491;-79
2022/11/26 11:35:25;;;;;;;24.67;11.68;;;;;;;;;;5078588;28;20053;-79
2022/11/26 11:37:55;;;;;;;24.65;11.75;;;;;;;;;;5058349;28;20127;-79
2022/11/26 11:40:24;;;;;;;29.30;12.23;;;;;;;;;;5058044;28;20096;-79
2022/11/26 11:42:54;;;;;;;24.98;11.60;;;;;;;;;;5059348;28;19920;-78
2022/11/26 11:45:25;;;;;;;24.60;12.13;;;;;;;;;;5058091;28;20037;-78
2022/11/26 11:47:55;;;;;;;24.63;10.93;;;;;;;;;;5055774;28;20132;-78
2022/11/26 11:50:32;;;;;;;26.42;10.07;;;;;;;;;;5059091;28;20048;-79
2022/11/26 11:53:02;;;;;;;24.90;9.77;;;;;;;;;;5048996;28;20037;-79
2022/11/26 11:55:31;;;;;;;24.67;11.13;;;;;;;;;;5061566;28;20045;-80
2022/11/26 11:57:57;;;;;;;28.38;11.85;;;;;;;;;;5071941;28;20047;-80
2022/11/26 12:00:31;;;;;;;24.45;11.00;;;;;;;;;;5050172;28;20051;-80
2022/11/26 12:03:12;;;;;;;23.40;10.65;;;;;;;;;;5060863;28;20053;-80
2022/11/26 12:05:42;;;;;;;24.80;10.52;;;;;;;;;;5049445;28;20133;-79
2022/11/26 12:08:14;;;;;;;23.55;9.95;;;;;;;;;;5059065;28;20079;-79
2022/11/26 12:11:03;;;;;;;22.15;10.27;;;;;;;;;;5061434;28;20053;-79
2022/11/26 12:13:30;;;;;;;25.50;10.75;;;;;;;;;;5050481;28;20056;-79
2022/11/26 12:16:03;;;;;;;23.10;10.00;;;;;;;;;;5043670;28;20053;-79
2022/11/26 12:18:55;;;;;;;25.52;10.52;;;;;;;;;;5062003;28;20076;-80
2022/11/26 12:21:27;;;;;;;24.52;10.70;;;;;;;;;;5056810;28;20233;-80
2022/11/26 12:23:57;;;;;;;23.50;10.00;;;;;;;;;;5039834;28;20041;-79
2022/11/26 12:26:23;;;;;;;23.65;9.75;;;;;;;;;;5053943;28;20045;-79
2022/11/26 12:28:52;;;;;;;24.65;9.63;;;;;;;;;;5051457;28;20041;-79
2022/11/26 12:31:31;;;;;;;20.30;9.13;;;;;;;;;;5048311;28;20052;-80
2022/11/26 12:34:05;;;;;;;21.05;9.02;;;;;;;;;;5059713;28;20041;-79
2022/11/26 12:36:35;;;;;;;25.05;9.63;;;;;;;;;;5040990;28;20119;-79
2022/11/26 12:39:17;;;;;;;22.90;9.13;;;;;;;;;;5050710;28;20047;-79
2022/11/26 12:41:46;;;;;;;22.42;8.93;;;;;;;;;;5057498;28;20451;-78
2022/11/26 12:44:19;;;;;;;23.02;9.65;;;;;;;;;;5058794;28;20186;-79
2022/11/26 12:46:57;;;;;;;26.20;9.13;;;;;;;;;;5036577;28;20080;-79
2022/11/26 12:49:34;;;;;;;23.00;9.43;;;;;;;;;;5037142;28;20087;-79
2022/11/26 12:52:28;;;;;;;24.00;10.65;;;;;;;;;;5050260;28;20068;-78
2022/11/26 12:55:09;;;;;;;21.90;9.02;;;;;;;;;;5058097;28;20095;-80
2022/11/26 12:57:44;;;;;;;20.10;10.60;;;;;;;;;;5053524;28;20044;-79
2022/11/26 13:00:14;;;;;;;26.05;9.88;;;;;;;;;;5053155;28;20041;-79
2022/11/26 13:02:43;;;;;;;21.33;9.63;;;;;;;;;;5054621;28;20047;-79
2022/11/26 13:05:16;;;;;;;20.55;9.63;;;;;;;;;;5054593;28;20033;-79
2022/11/26 13:08:01;;;;;;;28.40;10.63;;;;;;;;;;5056660;28;20087;-79
2022/11/26 13:10:30;;;;;;;22.52;9.63;;;;;;;;;;5058873;28;20111;-79
2022/11/26 13:13:15;;;;;;;25.23;10.50;;;;;;;;;;5053134;28;20088;-79
2022/11/26 13:15:43;;;;;;;36.15;11.52;;;;;;;;;;5057972;28;20057;-80
2022/11/26 13:18:13;;;;;;;20.92;10.45;;;;;;;;;;5057476;28;20069;-79
2022/11/26 13:20:39;;;;;;;26.23;11.02;;;;;;;;;;5060740;28;20465;-80
2022/11/26 13:23:08;;;;;;;32.47;13.32;;;;;;;;;;5061011;28;20093;-80
2022/11/26 13:25:57;;;;;;;20.92;10.00;;;;;;;;;;5048418;28;20048;-80
2022/11/26 13:28:42;;;;;;;29.15;10.50;;;;;;;;;;5044994;28;20053;-79
2022/11/26 13:31:11;;;;;;;26.73;10.85;;;;;;;;;;5048882;28;20045;-78
2022/11/26 13:33:40;;;;;;;19.83;10.00;;;;;;;;;;5065094;28;20048;-79
2022/11/26 13:36:12;;;;;;;26.13;10.90;;;;;;;;;;5063479;28;20128;-80
2022/11/26 13:38:50;;;;;;;18.92;10.60;;;;;;;;;;5054501;28;20045;-79
2022/11/26 13:41:19;;;;;;;26.00;10.93;;;;;;;;;;5041001;28;20045;-80
2022/11/26 13:43:48;;;;;;;23.33;10.40;;;;;;;;;;5055413;28;20052;-80
2022/11/26 13:46:18;;;;;;;22.30;10.60;;;;;;;;;;5055653;28;20044;-79
2022/11/26 13:49:10;;;;;;;22.08;10.30;;;;;;;;;;5056148;28;20044;-79
2022/11/26 13:51:41;;;;;;;22.80;10.40;;;;;;;;;;5056031;28;20044;-79
2022/11/26 13:54:13;;;;;;;20.15;9.95;;;;;;;;;;5039110;28;20049;-78
2022/11/26 13:56:39;;;;;;;28.65;10.80;;;;;;;;;;5038848;28;20045;-79
2022/11/26 13:59:14;;;;;;;23.83;10.60;;;;;;;;;;5037231;28;20045;-79
2022/11/26 14:01:40;;;;;;;21.88;10.25;;;;;;;;;;5049685;28;20492;-79
2022/11/26 14:04:32;;;;;;;20.85;9.95;;;;;;;;;;5038887;28;20033;-79
2022/11/26 14:07:04;;;;;;;32.53;12.82;;;;;;;;;;5055802;28;20037;-79
2022/11/26 14:09:46;;;;;;;20.63;10.45;;;;;;;;;;5056526;28;20051;-79
2022/11/26 14:12:12;;;;;;;29.83;10.50;;;;;;;;;;5055919;28;20060;-79
2022/11/26 14:14:39;;;;;;;31.75;12.52;;;;;;;;;;5053453;28;20429;-79
2022/11/26 14:17:08;;;;;;;25.17;11.13;;;;;;;;;;5037645;28;20079;-79
2022/11/26 14:19:41;;;;;;;36.92;16.08;;;;;;;;;;5053848;28;20045;-79
2022/11/26 14:22:07;;;;;;;24.50;11.77;;;;;;;;;;5054414;28;20045;-79
2022/11/26 14:24:51;;;;;;;21.55;9.93;;;;;;;;;;5054527;28;20051;-79
2022/11/26 14:27:28;;;;;;;26.05;11.63;;;;;;;;;;5054117;28;20084;-80
2022/11/26 14:30:01;;;;;;;27.73;13.32;;;;;;;;;;5042674;28;20037;-79
2022/11/26 14:32:30;;;;;;;35.45;13.18;;;;;;;;;;5051533;28;20047;-79
2022/11/26 14:34:57;;;;;;;37.25;13.45;;;;;;;;;;5056013;28;20041;-79
2022/11/26 14:37:25;;;;;;;33.60;18.33;;;;;;;;;;5053942;28;20048;-79